Terminal Aerodrome Forecast
Issued by NWS

Home | Current Version | Previous Version | Text Only | Print | Product List | Glossary On
Versions: 1 2 3 4 5 6 7 8 9 10 11 12 13 14 15 16 17 18 19 20 21
881
FTUS43 KSGF 171721
TAFBBG
TAF
KBBG 171721Z 1718/1818 28006KT P6SM OVC015
     FM172000 28006KT P6SM OVC020
     FM172200 29005KT P6SM OVC035
     FM180700 00000KT 4SM BR BKN060
     FM180900 00000KT 1 1/2SM BR BKN015
     FM181200 00000KT 3/4SM BR BKN008
     FM181700 13004KT P6SM BKN035=

USA.gov is the U.S. government's official web portal to all federal, state and local government web resources and services.